sensor_id;sensor_type;location;lat;lon;timestamp;pressure;altitude;pressure_sealevel;temperature;humidity
5609;BME280;2826;51.354;9.588;2023-02-15T00:01:05;99561.72;;;2.34;95.14
5609;BME280;2826;51.354;9.588;2023-02-15T00:03:32;99557.56;;;2.40;95.08
5609;BME280;2826;51.354;9.588;2023-02-15T00:06:00;99554.16;;;2.41;95.11
5609;BME280;2826;51.354;9.588;2023-02-15T00:08:26;99559.25;;;2.39;94.95
5609;BME280;2826;51.354;9.588;2023-02-15T00:10:53;99553.19;;;2.34;94.80
5609;BME280;2826;51.354;9.588;2023-02-15T00:13:19;99548.00;;;2.31;94.77
5609;BME280;2826;51.354;9.588;2023-02-15T00:15:46;99549.63;;;2.26;95.02
5609;BME280;2826;51.354;9.588;2023-02-15T00:18:12;99553.03;;;2.25;95.36
5609;BME280;2826;51.354;9.588;2023-02-15T00:20:40;99551.41;;;2.30;94.93
5609;BME280;2826;51.354;9.588;2023-02-15T00:23:08;99551.47;;;2.34;94.94
5609;BME280;2826;51.354;9.588;2023-02-15T00:25:34;99542.97;;;2.35;95.05
5609;BME280;2826;51.354;9.588;2023-02-15T00:28:01;99504.13;;;2.07;94.75
5609;BME280;2826;51.354;9.588;2023-02-15T00:30:28;99534.38;;;2.32;94.87
5609;BME280;2826;51.354;9.588;2023-02-15T00:32:54;99546.25;;;2.27;94.89
5609;BME280;2826;51.354;9.588;2023-02-15T00:35:21;99540.16;;;2.20;94.56
5609;BME280;2826;51.354;9.588;2023-02-15T00:37:47;99529.03;;;2.16;94.73
5609;BME280;2826;51.354;9.588;2023-02-15T00:40:15;99491.19;;;1.98;94.51
5609;BME280;2826;51.354;9.588;2023-02-15T00:42:42;99532.44;;;2.18;94.73
5609;BME280;2826;51.354;9.588;2023-02-15T00:45:09;99525.56;;;2.14;94.90
5609;BME280;2826;51.354;9.588;2023-02-15T00:47:35;99485.94;;;1.90;94.90
5609;BME280;2826;51.354;9.588;2023-02-15T00:50:03;99508.41;;;2.07;95.04
5609;BME280;2826;51.354;9.588;2023-02-15T00:52:30;99532.56;;;2.25;95.01
5609;BME280;2826;51.354;9.588;2023-02-15T00:54:57;99518.94;;;2.26;95.15
5609;BME280;2826;51.354;9.588;2023-02-15T00:57:25;99518.97;;;2.27;95.02
5609;BME280;2826;51.354;9.588;2023-02-15T00:59:51;99513.00;;;2.28;94.90
5609;BME280;2826;51.354;9.588;2023-02-15T01:02:18;99509.59;;;2.29;95.05
5609;BME280;2826;51.354;9.588;2023-02-15T01:04:45;99506.25;;;2.33;94.81
5609;BME280;2826;51.354;9.588;2023-02-15T01:07:12;99512.13;;;2.28;94.76
5609;BME280;2826;51.354;9.588;2023-02-15T01:09:38;99513.84;;;2.27;94.32
5609;BME280;2826;51.354;9.588;2023-02-15T01:12:05;99509.53;;;2.25;94.40
5609;BME280;2826;51.354;9.588;2023-02-15T01:14:33;99511.16;;;2.19;94.52
5609;BME280;2826;51.354;9.588;2023-02-15T01:16:59;99511.03;;;2.13;94.58
5609;BME280;2826;51.354;9.588;2023-02-15T01:19:26;99512.72;;;2.11;94.54
5609;BME280;2826;51.354;9.588;2023-02-15T01:21:53;99508.47;;;2.12;94.57
5609;BME280;2826;51.354;9.588;2023-02-15T01:24:19;99513.56;;;2.12;94.89
5609;BME280;2826;51.354;9.588;2023-02-15T01:26:46;99505.91;;;2.12;94.63
5609;BME280;2826;51.354;9.588;2023-02-15T01:29:12;99509.34;;;2.14;94.96
5609;BME280;2826;51.354;9.588;2023-02-15T01:31:40;99500.00;;;2.16;95.11
5609;BME280;2826;51.354;9.588;2023-02-15T01:34:07;99509.41;;;2.18;94.93
5609;BME280;2826;51.354;9.588;2023-02-15T01:36:34;99505.13;;;2.17;94.79
5609;BME280;2826;51.354;9.588;2023-02-15T01:39:01;99506.00;;;2.18;94.94
5609;BME280;2826;51.354;9.588;2023-02-15T01:41:30;99494.09;;;2.20;94.76
5609;BME280;2826;51.354;9.588;2023-02-15T01:44:01;99488.91;;;2.17;94.58
5609;BME280;2826;51.354;9.588;2023-02-15T01:46:32;99486.41;;;2.20;94.74
5609;BME280;2826;51.354;9.588;2023-02-15T01:49:05;99493.22;;;2.18;95.00
5609;BME280;2826;51.354;9.588;2023-02-15T01:51:36;99488.09;;;2.18;94.72
5609;BME280;2826;51.354;9.588;2023-02-15T01:54:09;99488.91;;;2.17;94.71
5609;BME280;2826;51.354;9.588;2023-02-15T01:56:38;99486.34;;;2.15;94.68
5609;BME280;2826;51.354;9.588;2023-02-15T01:59:08;99489.84;;;2.20;94.60
5609;BME280;2826;51.354;9.588;2023-02-15T02:01:37;99488.97;;;2.20;94.62
5609;BME280;2826;51.354;9.588;2023-02-15T02:04:09;99486.34;;;2.17;94.43
5609;BME280;2826;51.354;9.588;2023-02-15T02:06:39;99481.28;;;2.20;94.57
5609;BME280;2826;51.354;9.588;2023-02-15T02:09:06;99482.09;;;2.17;94.57
5609;BME280;2826;51.354;9.588;2023-02-15T02:11:34;99487.97;;;2.08;94.43
5609;BME280;2826;51.354;9.588;2023-02-15T02:14:01;99488.69;;;2.01;94.29
5609;BME280;2826;51.354;9.588;2023-02-15T02:16:33;99486.09;;;2.00;94.39
5609;BME280;2826;51.354;9.588;2023-02-15T02:19:25;99489.53;;;2.00;94.21
5609;BME280;2826;51.354;9.588;2023-02-15T02:22:25;99483.56;;;2.01;94.08
5609;BME280;2826;51.354;9.588;2023-02-15T02:25:15;99485.22;;;1.98;94.58
5609;BME280;2826;51.354;9.588;2023-02-15T02:27:48;99473.16;;;1.90;94.39
5609;BME280;2826;51.354;9.588;2023-02-15T02:30:49;99479.94;;;1.90;94.65
5609;BME280;2826;51.354;9.588;2023-02-15T02:33:34;99478.25;;;1.90;94.42
5609;BME280;2826;51.354;9.588;2023-02-15T02:36:13;99474.00;;;1.89;94.23
5609;BME280;2826;51.354;9.588;2023-02-15T02:38:52;99475.81;;;1.95;94.44
5609;BME280;2826;51.354;9.588;2023-02-15T02:41:26;99474.84;;;1.90;94.32
5609;BME280;2826;51.354;9.588;2023-02-15T02:44:00;99464.59;;;1.88;94.33
5609;BME280;2826;51.354;9.588;2023-02-15T02:46:33;99461.16;;;1.86;94.47
5609;BME280;2826;51.354;9.588;2023-02-15T02:49:03;99460.28;;;1.84;94.64
5609;BME280;2826;51.354;9.588;2023-02-15T02:51:30;99455.25;;;1.90;94.27
5609;BME280;2826;51.354;9.588;2023-02-15T02:53:59;99448.41;;;1.89;94.47
5609;BME280;2826;51.354;9.588;2023-02-15T02:56:30;99457.88;;;1.93;94.33
5609;BME280;2826;51.354;9.588;2023-02-15T02:59:02;99452.59;;;1.86;94.32
5609;BME280;2826;51.354;9.588;2023-02-15T03:01:33;99450.00;;;1.82;94.17
5609;BME280;2826;51.354;9.588;2023-02-15T03:04:05;99445.69;;;1.78;94.17
5609;BME280;2826;51.354;9.588;2023-02-15T03:06:38;99438.84;;;1.77;94.45
5609;BME280;2826;51.354;9.588;2023-02-15T03:09:10;99430.34;;;1.78;94.28
5609;BME280;2826;51.354;9.588;2023-02-15T03:11:42;99426.09;;;1.80;94.11
5609;BME280;2826;51.354;9.588;2023-02-15T03:14:10;99418.38;;;1.79;94.11
5609;BME280;2826;51.354;9.588;2023-02-15T03:16:40;99421.84;;;1.81;94.21
5609;BME280;2826;51.354;9.588;2023-02-15T03:19:13;99418.47;;;1.83;94.26
5609;BME280;2826;51.354;9.588;2023-02-15T03:21:45;99419.28;;;1.81;94.20
5609;BME280;2826;51.354;9.588;2023-02-15T03:24:18;99410.56;;;1.68;93.92
5609;BME280;2826;51.354;9.588;2023-02-15T03:26:49;99397.59;;;1.57;93.97
5609;BME280;2826;51.354;9.588;2023-02-15T03:29:18;99411.38;;;1.67;94.12
5609;BME280;2826;51.354;9.588;2023-02-15T03:31:53;99405.34;;;1.62;93.96
5609;BME280;2826;51.354;9.588;2023-02-15T03:34:22;99402.78;;;1.62;94.06
5609;BME280;2826;51.354;9.588;2023-02-15T03:36:52;99395.97;;;1.62;93.98
5609;BME280;2826;51.354;9.588;2023-02-15T03:39:26;99399.38;;;1.63;94.20
5609;BME280;2826;51.354;9.588;2023-02-15T03:41:58;99397.59;;;1.59;93.93
5609;BME280;2826;51.354;9.588;2023-02-15T03:44:29;99400.25;;;1.63;94.20
5609;BME280;2826;51.354;9.588;2023-02-15T03:47:02;99399.38;;;1.63;93.57
5609;BME280;2826;51.354;9.588;2023-02-15T03:49:41;99394.09;;;1.50;93.73
5609;BME280;2826;51.354;9.588;2023-02-15T03:52:10;99359.50;;;1.22;93.92
5609;BME280;2826;51.354;9.588;2023-02-15T03:54:38;99393.06;;;1.40;93.98
5609;BME280;2826;51.354;9.588;2023-02-15T03:57:10;99387.13;;;1.43;94.06
5609;BME280;2826;51.354;9.588;2023-02-15T03:59:55;99384.66;;;1.48;93.70
5609;BME280;2826;51.354;9.588;2023-02-15T04:02:44;99398.22;;;1.45;93.78
5609;BME280;2826;51.354;9.588;2023-02-15T04:05:16;99394.72;;;1.37;93.79
5609;BME280;2826;51.354;9.588;2023-02-15T04:07:42;99389.59;;;1.37;93.83
5609;BME280;2826;51.354;9.588;2023-02-15T04:10:09;99392.13;;;1.35;93.59
5609;BME280;2826;51.354;9.588;2023-02-15T04:13:02;99395.56;;;1.39;93.78
5609;BME280;2826;51.354;9.588;2023-02-15T04:15:28;99386.25;;;1.42;93.83
5609;BME280;2826;51.354;9.588;2023-02-15T04:18:12;99384.56;;;1.43;94.01
5609;BME280;2826;51.354;9.588;2023-02-15T04:20:44;99385.38;;;1.40;93.69
5609;BME280;2826;51.354;9.588;2023-02-15T04:23:28;99387.13;;;1.43;93.81
5609;BME280;2826;51.354;9.588;2023-02-15T04:26:12;99383.69;;;1.41;93.65
5609;BME280;2826;51.354;9.588;2023-02-15T04:28:38;99386.22;;;1.41;93.64
5609;BME280;2826;51.354;9.588;2023-02-15T04:31:05;99391.34;;;1.41;93.78
5609;BME280;2826;51.354;9.588;2023-02-15T04:33:32;99389.56;;;1.35;93.78
5609;BME280;2826;51.354;9.588;2023-02-15T04:35:59;99390.38;;;1.34;94.16
5609;BME280;2826;51.354;9.588;2023-02-15T04:38:26;99390.38;;;1.34;93.99
5609;BME280;2826;51.354;9.588;2023-02-15T04:40:53;99394.69;;;1.35;94.16
5609;BME280;2826;51.354;9.588;2023-02-15T04:43:19;99384.44;;;1.35;93.75
5609;BME280;2826;51.354;9.588;2023-02-15T04:45:50;99384.47;;;1.37;93.79
5609;BME280;2826;51.354;9.588;2023-02-15T04:48:17;99381.03;;;1.35;93.39
5609;BME280;2826;51.354;9.588;2023-02-15T04:50:44;99374.13;;;1.30;93.58
5609;BME280;2826;51.354;9.588;2023-02-15T04:53:12;99379.25;;;1.30;93.66
5609;BME280;2826;51.354;9.588;2023-02-15T04:55:38;99371.66;;;1.34;93.52
5609;BME280;2826;51.354;9.588;2023-02-15T04:58:05;99376.72;;;1.32;93.37
5609;BME280;2826;51.354;9.588;2023-02-15T05:00:32;99358.66;;;1.21;93.44
5609;BME280;2826;51.354;9.588;2023-02-15T05:02:58;99359.50;;;1.20;93.36
5609;BME280;2826;51.354;9.588;2023-02-15T05:05:25;99363.84;;;1.26;93.62
5609;BME280;2826;51.354;9.588;2023-02-15T05:07:51;99369.81;;;1.26;93.56
5609;BME280;2826;51.354;9.588;2023-02-15T05:10:19;99350.03;;;1.16;93.20
5609;BME280;2826;51.354;9.588;2023-02-15T05:12:46;99362.09;;;1.23;93.52
5609;BME280;2826;51.354;9.588;2023-02-15T05:15:13;99362.09;;;1.23;93.36
5609;BME280;2826;51.354;9.588;2023-02-15T05:17:40;99350.06;;;1.17;93.30
5609;BME280;2826;51.354;9.588;2023-02-15T05:20:07;99347.53;;;1.17;93.29
5609;BME280;2826;51.354;9.588;2023-02-15T05:22:34;99348.50;;;1.24;93.50
5609;BME280;2826;51.354;9.588;2023-02-15T05:25:00;99347.56;;;1.21;93.26
5609;BME280;2826;51.354;9.588;2023-02-15T05:27:46;99347.56;;;1.21;93.60
5609;BME280;2826;51.354;9.588;2023-02-15T05:30:30;99346.63;;;1.15;93.67
5609;BME280;2826;51.354;9.588;2023-02-15T05:32:56;99347.50;;;1.16;93.67
5609;BME280;2826;51.354;9.588;2023-02-15T05:35:23;99345.00;;;1.21;93.72
5609;BME280;2826;51.354;9.588;2023-02-15T05:37:49;99342.50;;;1.24;93.72
5609;BME280;2826;51.354;9.588;2023-02-15T05:40:16;99340.81;;;1.24;93.33
5609;BME280;2826;51.354;9.588;2023-02-15T05:42:42;99345.03;;;1.22;93.39
5609;BME280;2826;51.354;9.588;2023-02-15T05:45:10;99350.91;;;1.18;93.41
5609;BME280;2826;51.354;9.588;2023-02-15T05:47:37;99346.59;;;1.14;93.13
5609;BME280;2826;51.354;9.588;2023-02-15T05:50:04;99356.94;;;1.20;93.42
5609;BME280;2826;51.354;9.588;2023-02-15T05:52:31;99352.69;;;1.22;93.10
5609;BME280;2826;51.354;9.588;2023-02-15T05:54:58;99364.56;;;1.19;93.46
5609;BME280;2826;51.354;9.588;2023-02-15T05:57:25;99361.91;;;1.12;93.44
5609;BME280;2826;51.354;9.588;2023-02-15T05:59:52;99366.19;;;1.13;93.47
5609;BME280;2826;51.354;9.588;2023-02-15T06:02:20;99365.28;;;1.11;93.52
5609;BME280;2826;51.354;9.588;2023-02-15T06:04:46;99370.34;;;1.08;93.47
5609;BME280;2826;51.354;9.588;2023-02-15T06:07:13;99368.66;;;1.10;93.35
5609;BME280;2826;51.354;9.588;2023-02-15T06:09:39;99377.94;;;1.05;93.09
5609;BME280;2826;51.354;9.588;2023-02-15T06:12:05;99377.75;;;0.94;93.74
5609;BME280;2826;51.354;9.588;2023-02-15T06:14:32;99376.13;;;0.99;93.28
5609;BME280;2826;51.354;9.588;2023-02-15T06:16:58;99374.22;;;0.87;93.34
5609;BME280;2826;51.354;9.588;2023-02-15T06:19:26;99385.22;;;0.85;93.47
5609;BME280;2826;51.354;9.588;2023-02-15T06:21:53;99381.91;;;0.89;93.19
5609;BME280;2826;51.354;9.588;2023-02-15T06:24:19;99373.97;;;0.75;93.63
5609;BME280;2826;51.354;9.588;2023-02-15T06:26:46;99376.63;;;0.80;93.02
5609;BME280;2826;51.354;9.588;2023-02-15T06:29:13;99379.19;;;0.80;92.93
5609;BME280;2826;51.354;9.588;2023-02-15T06:31:39;99370.53;;;0.73;92.72
5609;BME280;2826;51.354;9.588;2023-02-15T06:34:06;99367.88;;;0.68;92.73
5609;BME280;2826;51.354;9.588;2023-02-15T06:36:34;99376.22;;;0.59;93.23
5609;BME280;2826;51.354;9.588;2023-02-15T06:39:01;99372.88;;;0.62;93.33
5609;BME280;2826;51.354;9.588;2023-02-15T06:41:28;99376.31;;;0.64;93.40
5609;BME280;2826;51.354;9.588;2023-02-15T06:43:54;99383.06;;;0.60;93.84
5609;BME280;2826;51.354;9.588;2023-02-15T06:46:21;99374.59;;;0.63;93.61
5609;BME280;2826;51.354;9.588;2023-02-15T06:48:47;99374.69;;;0.68;93.66
5609;BME280;2826;51.354;9.588;2023-02-15T06:51:14;99372.13;;;0.66;93.63
5609;BME280;2826;51.354;9.588;2023-02-15T06:53:42;99373.91;;;0.70;93.60
5609;BME280;2826;51.354;9.588;2023-02-15T06:56:10;99369.59;;;0.68;93.53
5609;BME280;2826;51.354;9.588;2023-02-15T06:58:37;99364.56;;;0.72;93.84
5609;BME280;2826;51.354;9.588;2023-02-15T07:01:05;99372.28;;;0.75;93.85
5609;BME280;2826;51.354;9.588;2023-02-15T07:03:32;99363.78;;;0.76;93.85
5609;BME280;2826;51.354;9.588;2023-02-15T07:06:00;99336.31;;;0.63;93.79
5609;BME280;2826;51.354;9.588;2023-02-15T07:08:27;99353.63;;;0.78;93.71
5609;BME280;2826;51.354;9.588;2023-02-15T07:10:56;99293.41;;;0.43;93.42
5609;BME280;2826;51.354;9.588;2023-02-15T07:13:43;99345.16;;;0.81;93.75
5609;BME280;2826;51.354;9.588;2023-02-15T07:16:09;99333.09;;;0.73;93.99
5609;BME280;2826;51.354;9.588;2023-02-15T07:18:36;99341.72;;;0.78;94.13
5609;BME280;2826;51.354;9.588;2023-02-15T07:21:03;99335.81;;;0.83;93.98
5609;BME280;2826;51.354;9.588;2023-02-15T07:23:29;99344.41;;;0.86;94.11
5609;BME280;2826;51.354;9.588;2023-02-15T07:25:57;99341.88;;;0.88;93.72
5609;BME280;2826;51.354;9.588;2023-02-15T07:28:24;99339.22;;;0.83;93.41
5609;BME280;2826;51.354;9.588;2023-02-15T07:30:51;99340.09;;;0.84;93.67
5609;BME280;2826;51.354;9.588;2023-02-15T07:33:18;99339.34;;;0.88;93.79
5609;BME280;2826;51.354;9.588;2023-02-15T07:35:57;99342.66;;;0.84;93.73
5609;BME280;2826;51.354;9.588;2023-02-15T07:38:24;99335.13;;;0.91;93.59
5609;BME280;2826;51.354;9.588;2023-02-15T07:40:51;99340.22;;;0.90;93.09
5609;BME280;2826;51.354;9.588;2023-02-15T07:43:19;99333.38;;;0.89;92.95
5609;BME280;2826;51.354;9.588;2023-02-15T07:45:46;99346.09;;;0.86;92.74
5609;BME280;2826;51.354;9.588;2023-02-15T07:48:12;99341.81;;;0.85;93.15
5609;BME280;2826;51.354;9.588;2023-02-15T07:50:39;99336.66;;;0.82;93.15
5609;BME280;2826;51.354;9.588;2023-02-15T07:53:05;99341.78;;;0.83;92.97
5609;BME280;2826;51.354;9.588;2023-02-15T07:55:32;99335.03;;;0.85;92.83
5609;BME280;2826;51.354;9.588;2023-02-15T07:57:59;99335.03;;;0.87;93.00
5609;BME280;2826;51.354;9.588;2023-02-15T08:00:27;99349.47;;;0.85;92.76
5609;BME280;2826;51.354;9.588;2023-02-15T08:02:55;99339.22;;;0.83;92.78
5609;BME280;2826;51.354;9.588;2023-02-15T08:05:41;99340.13;;;0.85;92.95
5609;BME280;2826;51.354;9.588;2023-02-15T08:08:08;99341.97;;;0.93;92.68
5609;BME280;2826;51.354;9.588;2023-02-15T08:10:57;99340.22;;;0.90;92.60
5609;BME280;2826;51.354;9.588;2023-02-15T08:13:42;99335.03;;;0.85;92.48
5609;BME280;2826;51.354;9.588;2023-02-15T08:16:21;99333.41;;;0.90;92.68
5609;BME280;2826;51.354;9.588;2023-02-15T08:18:48;99336.78;;;0.88;92.66
5609;BME280;2826;51.354;9.588;2023-02-15T08:21:15;99333.41;;;0.90;92.72
5609;BME280;2826;51.354;9.588;2023-02-15T08:23:41;99341.09;;;0.90;92.78
5609;BME280;2826;51.354;9.588;2023-02-15T08:26:08;99338.59;;;0.95;92.88
5609;BME280;2826;51.354;9.588;2023-02-15T08:28:34;99344.69;;;1.02;92.95
5609;BME280;2826;51.354;9.588;2023-02-15T08:31:04;99344.66;;;1.00;92.78
5609;BME280;2826;51.354;9.588;2023-02-15T08:33:32;99339.72;;;1.10;92.58
5609;BME280;2826;51.354;9.588;2023-02-15T08:36:02;99332.91;;;1.10;92.04
5609;BME280;2826;51.354;9.588;2023-02-15T08:38:29;99342.22;;;1.07;92.03
5609;BME280;2826;51.354;9.588;2023-02-15T08:40:55;99349.94;;;1.11;92.13
5609;BME280;2826;51.354;9.588;2023-02-15T08:43:22;99339.63;;;1.05;92.48
5609;BME280;2826;51.354;9.588;2023-02-15T08:45:48;99342.09;;;1.00;92.24
5609;BME280;2826;51.354;9.588;2023-02-15T08:48:14;99334.50;;;1.03;92.38
5609;BME280;2826;51.354;9.588;2023-02-15T08:50:42;99323.47;;;1.06;92.31
5609;BME280;2826;51.354;9.588;2023-02-15T08:53:09;99320.00;;;1.02;91.99
5609;BME280;2826;51.354;9.588;2023-02-15T08:55:36;99317.50;;;1.06;92.07
5609;BME280;2826;51.354;9.588;2023-02-15T08:58:02;99314.22;;;1.13;92.54
5609;BME280;2826;51.354;9.588;2023-02-15T09:00:29;99308.38;;;1.20;92.33
5609;BME280;2826;51.354;9.588;2023-02-15T09:02:56;99311.13;;;1.31;92.17
5609;BME280;2826;51.354;9.588;2023-02-15T09:05:22;99314.50;;;1.32;91.68
5609;BME280;2826;51.354;9.588;2023-02-15T09:07:50;99304.28;;;1.32;92.07
5609;BME280;2826;51.354;9.588;2023-02-15T09:10:17;99307.09;;;1.47;92.18
5609;BME280;2826;51.354;9.588;2023-02-15T09:12:44;99296.69;;;1.35;92.03
5609;BME280;2826;51.354;9.588;2023-02-15T09:15:10;99307.13;;;1.49;91.57
5609;BME280;2826;51.354;9.588;2023-02-15T09:17:37;99308.13;;;1.57;91.19
5609;BME280;2826;51.354;9.588;2023-02-15T09:20:04;99302.31;;;1.69;91.09
5609;BME280;2826;51.354;9.588;2023-02-15T09:22:31;99303.25;;;1.74;91.22
5609;BME280;2826;51.354;9.588;2023-02-15T09:24:59;99299.94;;;1.80;90.52
5609;BME280;2826;51.354;9.588;2023-02-15T09:27:25;99299.13;;;1.86;90.43
5609;BME280;2826;51.354;9.588;2023-02-15T09:29:52;99295.00;;;1.95;91.03
5609;BME280;2826;51.354;9.588;2023-02-15T09:32:18;99294.41;;;2.17;90.22
5609;BME280;2826;51.354;9.588;2023-02-15T09:34:45;99293.72;;;2.27;89.76
5609;BME280;2826;51.354;9.588;2023-02-15T09:37:11;99285.19;;;2.28;89.22
5609;BME280;2826;51.354;9.588;2023-02-15T09:39:41;99284.44;;;2.37;89.11
5609;BME280;2826;51.354;9.588;2023-02-15T09:42:42;99292.28;;;2.51;88.90
5609;BME280;2826;51.354;9.588;2023-02-15T09:45:26;99301.03;;;2.72;88.27
5609;BME280;2826;51.354;9.588;2023-02-15T09:54:08;99300.94;;;2.61;86.55
5609;BME280;2826;51.354;9.588;2023-02-15T09:56:39;99296.66;;;2.63;86.95
5609;BME280;2826;51.354;9.588;2023-02-15T09:59:18;99297.56;;;2.68;87.22
5609;BME280;2826;51.354;9.588;2023-02-15T10:01:53;99308.78;;;2.78;87.40
5609;BME280;2826;51.354;9.588;2023-02-15T10:04:36;99300.44;;;2.98;87.13
5609;BME280;2826;51.354;9.588;2023-02-15T10:07:17;99309.03;;;3.06;86.13
5609;BME280;2826;51.354;9.588;2023-02-15T10:09:56;99294.50;;;3.04;85.57
5609;BME280;2826;51.354;9.588;2023-02-15T10:12:39;99301.34;;;3.03;86.03
5609;BME280;2826;51.354;9.588;2023-02-15T10:15:21;99303.13;;;3.12;85.40
5609;BME280;2826;51.354;9.588;2023-02-15T10:18:20;99303.94;;;3.05;85.76
5609;BME280;2826;51.354;9.588;2023-02-15T10:20:55;99302.16;;;2.97;85.56
5609;BME280;2826;51.354;9.588;2023-02-15T10:23:39;99300.41;;;2.95;84.92
5609;BME280;2826;51.354;9.588;2023-02-15T10:26:14;99291.84;;;2.91;85.19
5609;BME280;2826;51.354;9.588;2023-02-15T10:28:46;99292.72;;;2.93;85.48
5609;BME280;2826;51.354;9.588;2023-02-15T10:31:23;99298.72;;;2.98;85.42
5609;BME280;2826;51.354;9.588;2023-02-15T10:34:01;99289.38;;;3.04;85.83
5609;BME280;2826;51.354;9.588;2023-02-15T10:36:52;99287.72;;;3.07;84.97
5609;BME280;2826;51.354;9.588;2023-02-15T10:39:26;99289.41;;;3.05;85.09
5609;BME280;2826;51.354;9.588;2023-02-15T10:42:02;99287.72;;;3.07;84.87
5609;BME280;2826;51.354;9.588;2023-02-15T10:44:46;99281.78;;;3.11;84.53
5609;BME280;2826;51.354;9.588;2023-02-15T10:47:31;99279.19;;;3.13;84.79
5609;BME280;2826;51.354;9.588;2023-02-15T10:50:30;99275.00;;;3.20;84.85
5609;BME280;2826;51.354;9.588;2023-02-15T10:53:13;99275.84;;;3.19;84.15
5609;BME280;2826;51.354;9.588;2023-02-15T10:55:51;99223.59;;;2.98;84.61
5609;BME280;2826;51.354;9.588;2023-02-15T10:58:29;99272.53;;;3.32;84.15
5609;BME280;2826;51.354;9.588;2023-02-15T11:01:06;99272.53;;;3.34;83.95
5609;BME280;2826;51.354;9.588;2023-02-15T11:03:48;99267.47;;;3.42;84.00
5609;BME280;2826;51.354;9.588;2023-02-15T11:06:20;99266.69;;;3.52;84.14
5609;BME280;2826;51.354;9.588;2023-02-15T11:08:50;99272.72;;;3.59;83.50
5609;BME280;2826;51.354;9.588;2023-02-15T11:11:21;99270.19;;;3.65;82.77
5609;BME280;2826;51.354;9.588;2023-02-15T11:13:52;99270.25;;;3.70;82.62
5609;BME280;2826;51.354;9.588;2023-02-15T11:16:24;99273.72;;;3.83;83.11
5609;BME280;2826;51.354;9.588;2023-02-15T11:18:57;99263.50;;;3.90;82.94
5609;BME280;2826;51.354;9.588;2023-02-15T11:21:28;99258.41;;;3.97;82.42
5609;BME280;2826;51.354;9.588;2023-02-15T11:23:59;99266.19;;;4.20;82.21
5609;BME280;2826;51.354;9.588;2023-02-15T11:26:29;99258.44;;;4.06;80.79
5609;BME280;2826;51.354;9.588;2023-02-15T11:29:02;99265.31;;;4.16;81.33
5609;BME280;2826;51.354;9.588;2023-02-15T11:31:40;99262.78;;;4.24;80.60
5609;BME280;2826;51.354;9.588;2023-02-15T11:34:14;99266.25;;;4.28;81.06
5609;BME280;2826;51.354;9.588;2023-02-15T11:36:45;99259.41;;;4.39;80.96
5609;BME280;2826;51.354;9.588;2023-02-15T11:39:16;99259.47;;;4.53;80.57
5609;BME280;2826;51.354;9.588;2023-02-15T11:41:46;99256.91;;;4.70;80.56
5609;BME280;2826;51.354;9.588;2023-02-15T11:44:19;99257.72;;;4.54;78.50
5609;BME280;2826;51.354;9.588;2023-02-15T11:46:49;99253.44;;;4.53;78.94
5609;BME280;2826;51.354;9.588;2023-02-15T11:49:29;99255.19;;;4.57;78.08
5609;BME280;2826;51.354;9.588;2023-02-15T11:51:57;99248.34;;;4.71;78.36
5609;BME280;2826;51.354;9.588;2023-02-15T11:54:28;99251.81;;;4.88;78.92
5609;BME280;2826;51.354;9.588;2023-02-15T11:56:58;99239.81;;;4.99;78.06
5609;BME280;2826;51.354;9.588;2023-02-15T11:59:29;99249.25;;;5.14;77.40
5609;BME280;2826;51.354;9.588;2023-02-15T12:01:58;99244.97;;;5.29;78.18
5609;BME280;2826;51.354;9.588;2023-02-15T12:04:30;99226.09;;;5.25;76.57
5609;BME280;2826;51.354;9.588;2023-02-15T12:07:01;99239.81;;;5.35;76.07
5609;BME280;2826;51.354;9.588;2023-02-15T12:09:35;99228.69;;;5.28;75.84
5609;BME280;2826;51.354;9.588;2023-02-15T12:12:20;99230.38;;;5.37;76.53
5609;BME280;2826;51.354;9.588;2023-02-15T12:14:49;99232.94;;;5.53;76.96
5609;BME280;2826;51.354;9.588;2023-02-15T12:17:16;99230.31;;;5.71;75.65
5609;BME280;2826;51.354;9.588;2023-02-15T12:19:45;99226.00;;;5.75;75.57
5609;BME280;2826;51.354;9.588;2023-02-15T12:22:22;99232.84;;;5.74;74.27
5609;BME280;2826;51.354;9.588;2023-02-15T12:24:52;99226.00;;;5.70;74.37
5609;BME280;2826;51.354;9.588;2023-02-15T12:27:23;99222.59;;;5.68;74.88
5609;BME280;2826;51.354;9.588;2023-02-15T12:29:52;99214.84;;;5.81;75.22
5609;BME280;2826;51.354;9.588;2023-02-15T12:32:24;99230.22;;;6.09;74.47
5609;BME280;2826;51.354;9.588;2023-02-15T12:34:55;99232.69;;;6.29;73.61
5609;BME280;2826;51.354;9.588;2023-02-15T12:37:27;99224.09;;;6.33;72.54
5609;BME280;2826;51.354;9.588;2023-02-15T12:39:58;99219.75;;;6.38;72.56
5609;BME280;2826;51.354;9.588;2023-02-15T12:42:26;99217.13;;;6.51;72.77
5609;BME280;2826;51.354;9.588;2023-02-15T12:44:58;99207.63;;;6.56;72.31
5609;BME280;2826;51.354;9.588;2023-02-15T12:47:25;99204.16;;;6.60;71.77
5609;BME280;2826;51.354;9.588;2023-02-15T12:50:10;99203.22;;;6.75;71.77
5609;BME280;2826;51.354;9.588;2023-02-15T12:52:43;99205.78;;;6.75;70.44
5609;BME280;2826;51.354;9.588;2023-02-15T12:55:17;99206.56;;;6.87;69.63
5609;BME280;2826;51.354;9.588;2023-02-15T12:57:44;99210.94;;;6.75;69.87
5609;BME280;2826;51.354;9.588;2023-02-15T13:00:26;99180.22;;;6.49;69.44
5609;BME280;2826;51.354;9.588;2023-02-15T13:02:55;99199.03;;;6.59;70.00
5609;BME280;2826;51.354;9.588;2023-02-15T13:05:25;99200.75;;;6.58;69.87
5609;BME280;2826;51.354;9.588;2023-02-15T13:07:55;99199.81;;;6.72;71.20
5609;BME280;2826;51.354;9.588;2023-02-15T13:10:26;99191.94;;;6.87;70.23
5609;BME280;2826;51.354;9.588;2023-02-15T13:12:54;99191.84;;;7.03;69.56
5609;BME280;2826;51.354;9.588;2023-02-15T13:15:31;99180.66;;;7.02;68.89
5609;BME280;2826;51.354;9.588;2023-02-15T13:18:00;99184.06;;;7.04;68.29
5609;BME280;2826;51.354;9.588;2023-02-15T13:20:29;99151.56;;;6.88;68.17
5609;BME280;2826;51.354;9.588;2023-02-15T13:22:59;99162.41;;;7.21;69.03
5609;BME280;2826;51.354;9.588;2023-02-15T13:25:32;99160.41;;;7.48;68.15
5609;BME280;2826;51.354;9.588;2023-02-15T13:28:02;99169.00;;;7.50;67.05
5609;BME280;2826;51.354;9.588;2023-02-15T13:30:32;99162.09;;;7.54;66.58
5609;BME280;2826;51.354;9.588;2023-02-15T13:33:03;99152.50;;;7.64;67.12
5609;BME280;2826;51.354;9.588;2023-02-15T13:35:38;99148.84;;;7.80;66.06
5609;BME280;2826;51.354;9.588;2023-02-15T13:38:33;99153.19;;;7.78;65.80
5609;BME280;2826;51.354;9.588;2023-02-15T13:41:11;99140.28;;;7.80;65.55
5609;BME280;2826;51.354;9.588;2023-02-15T13:43:46;99138.38;;;7.93;64.90
5609;BME280;2826;51.354;9.588;2023-02-15T13:46:27;99134.84;;;8.00;65.51
5609;BME280;2826;51.354;9.588;2023-02-15T13:49:09;99141.69;;;8.04;64.40
5609;BME280;2826;51.354;9.588;2023-02-15T13:51:51;99134.88;;;7.98;64.38
5609;BME280;2826;51.354;9.588;2023-02-15T13:54:32;99138.25;;;8.01;64.59
5609;BME280;2826;51.354;9.588;2023-02-15T13:57:12;99141.97;;;7.82;64.72
5609;BME280;2826;51.354;9.588;2023-02-15T13:59:55;99136.66;;;7.92;65.58